ROMMA est une association bénévole à but non lucratif. Votre soutien est indispensable : ADHERER à ROMMA ou FAIRE un DON

Pinsot - (38, Isère)

Vallée du Haut Bréda (750 m)   Longitude: 06° 06' E   Latitude: 45° 21' N Station partenaire n°101
 

Détail journalier du     <<     >>

Température Precipitation Humidité Pression Vent Dir Rafale Dir. rafale Ensol.
Heure (°C) (mm) (%) (hPa) (km/h) (km/h) (min)
01:00 0.709010252SSO10SSO0
02:00 0.808910252SSO13SSO0
03:00 0.6090102506SSO0
04:00 0.60901025010SSO0
05:00 0.80881025010SSO0
06:00 0.508910251SSO13SSO0
07:00 0.309010251SSO11SSO0
08:00 0.508910251SSO11SSO0
09:00 0.608810261SSO8SSO0
10:00 0.908810251SSO11SSO0
11:00 1.1089102606SSO0
12:00 5.2072102505SSO24
13:00 8.1071102402SSO60
14:00 8.206510230060
15:00 5.607410231E13E38
16:00 4.8084102202ESE6
17:00 5.0082102206SSO5
18:00 4.1085102308SSO0
19:00 3.9085102308SSO0
20:00 3.8085102206SSO0
21:00 3.6086102305SSO0
22:00 3.60871023010SSO0
23:00 3.9087102306SSO0
minuit 4.7085102305SSO0

Graphique du 06-12-2019

 

Serveur OMMA